Saxe, Virginia
Current Conditions -  °F | °C
As of 2:35 PM on Wednesday 17 Dec 2014 (Local Time) from KCXE Reporting Station
Clear Clear  
Wind Chill: 58°   Ceiling: Unl
Heat Index: 58°   Visibility: 10mi
Dew Point: 37°   Wind: 7mph
Humidity: 46%   Direction: 250°WSW
Pressure: 30.01"   Gusts: NA
Location:  36.93°N, 78.66°W
Report Text: KCXE 171935Z AUTO 25006KT 10SM CLR 14/03 A3001 RMK AO1 T01430028
Loading
Personal Weather Stations






























Interactive Weather Map New forecast layout! Learn more

10-Day Weather Forecast

Advertisements
Track Severe Weather on mobile